sensor_id;sensor_type;location;lat;lon;timestamp;temperature;humidity
22716;DHT22;11525;51.152;4.456;2022-10-31T00:53:18;13.50;99.90
22716;DHT22;11525;51.152;4.456;2022-10-31T00:55:53;13.50;99.90
22716;DHT22;11525;51.152;4.456;2022-10-31T00:58:30;13.50;99.90
22716;DHT22;11525;51.152;4.456;2022-10-31T01:11:53;13.40;99.90
22716;DHT22;11525;51.152;4.456;2022-10-31T01:14:20;13.40;99.90
22716;DHT22;11525;51.152;4.456;2022-10-31T01:16:51;13.40;99.90
22716;DHT22;11525;51.152;4.456;2022-10-31T02:42:58;12.40;99.90
22716;DHT22;11525;51.152;4.456;2022-10-31T03:09:07;12.00;99.90
22716;DHT22;11525;51.152;4.456;2022-10-31T03:45:22;11.70;99.90
22716;DHT22;11525;51.152;4.456;2022-10-31T03:48:10;11.70;99.90
22716;DHT22;11525;51.152;4.456;2022-10-31T04:07:49;11.70;99.90
22716;DHT22;11525;51.152;4.456;2022-10-31T04:10:22;11.60;99.90
22716;DHT22;11525;51.152;4.456;2022-10-31T04:40:13;11.40;99.90
22716;DHT22;11525;51.152;4.456;2022-10-31T04:43:41;11.40;99.90
22716;DHT22;11525;51.152;4.456;2022-10-31T05:05:27;11.20;99.90
22716;DHT22;11525;51.152;4.456;2022-10-31T05:11:31;11.10;99.90
22716;DHT22;11525;51.152;4.456;2022-10-31T05:13:58;11.00;99.90
22716;DHT22;11525;51.152;4.456;2022-10-31T05:16:47;11.10;99.90
22716;DHT22;11525;51.152;4.456;2022-10-31T05:19:16;11.10;99.90
22716;DHT22;11525;51.152;4.456;2022-10-31T05:21:42;11.10;99.90
22716;DHT22;11525;51.152;4.456;2022-10-31T05:24:08;11.20;99.90
22716;DHT22;11525;51.152;4.456;2022-10-31T05:26:34;11.20;99.90
22716;DHT22;11525;51.152;4.456;2022-10-31T05:29:00;11.30;99.90
22716;DHT22;11525;51.152;4.456;2022-10-31T05:31:26;11.30;99.90
22716;DHT22;11525;51.152;4.456;2022-10-31T05:33:55;11.30;99.90
22716;DHT22;11525;51.152;4.456;2022-10-31T05:40:22;11.20;99.90
22716;DHT22;11525;51.152;4.456;2022-10-31T05:43:30;11.20;99.90
22716;DHT22;11525;51.152;4.456;2022-10-31T06:06:41;11.40;99.90
22716;DHT22;11525;51.152;4.456;2022-10-31T06:10:08;11.50;99.90
22716;DHT22;11525;51.152;4.456;2022-10-31T06:12:55;11.50;99.90
22716;DHT22;11525;51.152;4.456;2022-10-31T06:25:21;11.80;99.90
22716;DHT22;11525;51.152;4.456;2022-10-31T06:48:37;12.10;99.90
22716;DHT22;11525;51.152;4.456;2022-10-31T07:11:07;12.20;99.90
22716;DHT22;11525;51.152;4.456;2022-10-31T07:17:29;12.50;99.90
22716;DHT22;11525;51.152;4.456;2022-10-31T07:20:10;12.50;99.90
22716;DHT22;11525;51.152;4.456;2022-10-31T07:29:36;12.80;99.90
22716;DHT22;11525;51.152;4.456;2022-10-31T07:32:50;12.70;99.90
22716;DHT22;11525;51.152;4.456;2022-10-31T07:43:11;13.20;99.90
22716;DHT22;11525;51.152;4.456;2022-10-31T07:45:36;13.30;99.90
22716;DHT22;11525;51.152;4.456;2022-10-31T07:52:03;13.20;99.90
22716;DHT22;11525;51.152;4.456;2022-10-31T08:02:00;13.30;99.90
22716;DHT22;11525;51.152;4.456;2022-10-31T08:04:53;13.40;99.90
22716;DHT22;11525;51.152;4.456;2022-10-31T08:14:04;13.20;99.90
22716;DHT22;11525;51.152;4.456;2022-10-31T08:16:30;13.10;99.90
22716;DHT22;11525;51.152;4.456;2022-10-31T08:18:55;13.20;99.90
22716;DHT22;11525;51.152;4.456;2022-10-31T08:21:21;13.30;99.90
22716;DHT22;11525;51.152;4.456;2022-10-31T08:23:47;13.20;99.90
22716;DHT22;11525;51.152;4.456;2022-10-31T08:26:13;13.20;99.90
22716;DHT22;11525;51.152;4.456;2022-10-31T08:28:38;13.20;99.90
22716;DHT22;11525;51.152;4.456;2022-10-31T08:31:04;13.30;99.90
22716;DHT22;11525;51.152;4.456;2022-10-31T08:33:31;13.40;99.90
22716;DHT22;11525;51.152;4.456;2022-10-31T08:36:00;13.40;99.90
22716;DHT22;11525;51.152;4.456;2022-10-31T08:38:25;13.70;99.90
22716;DHT22;11525;51.152;4.456;2022-10-31T08:40:51;13.80;99.90
22716;DHT22;11525;51.152;4.456;2022-10-31T08:43:17;13.90;99.90
22716;DHT22;11525;51.152;4.456;2022-10-31T08:45:47;14.10;99.90
22716;DHT22;11525;51.152;4.456;2022-10-31T08:48:14;14.20;99.90
22716;DHT22;11525;51.152;4.456;2022-10-31T08:50:40;14.30;99.90
22716;DHT22;11525;51.152;4.456;2022-10-31T08:53:11;14.40;99.90
22716;DHT22;11525;51.152;4.456;2022-10-31T08:55:38;14.30;99.90
22716;DHT22;11525;51.152;4.456;2022-10-31T08:58:06;14.20;99.90
22716;DHT22;11525;51.152;4.456;2022-10-31T09:00:33;14.10;99.90
22716;DHT22;11525;51.152;4.456;2022-10-31T09:03:03;14.00;99.90
22716;DHT22;11525;51.152;4.456;2022-10-31T09:05:30;14.00;99.90
22716;DHT22;11525;51.152;4.456;2022-10-31T09:08:00;14.10;99.90
22716;DHT22;11525;51.152;4.456;2022-10-31T09:10:28;14.40;99.90
22716;DHT22;11525;51.152;4.456;2022-10-31T09:12:58;14.30;99.90
22716;DHT22;11525;51.152;4.456;2022-10-31T09:15:25;14.20;99.90
22716;DHT22;11525;51.152;4.456;2022-10-31T09:17:51;14.30;99.90
22716;DHT22;11525;51.152;4.456;2022-10-31T09:20:18;14.20;99.90
22716;DHT22;11525;51.152;4.456;2022-10-31T09:22:44;14.30;99.90
22716;DHT22;11525;51.152;4.456;2022-10-31T09:25:10;14.50;99.90
22716;DHT22;11525;51.152;4.456;2022-10-31T09:27:38;14.50;99.90
22716;DHT22;11525;51.152;4.456;2022-10-31T09:30:05;14.40;99.90
22716;DHT22;11525;51.152;4.456;2022-10-31T09:32:31;14.40;99.90
22716;DHT22;11525;51.152;4.456;2022-10-31T09:35:00;14.40;99.90
22716;DHT22;11525;51.152;4.456;2022-10-31T09:37:35;14.50;99.90
22716;DHT22;11525;51.152;4.456;2022-10-31T09:40:35;14.50;99.90
22716;DHT22;11525;51.152;4.456;2022-10-31T09:56:53;14.80;99.90
22716;DHT22;11525;51.152;4.456;2022-10-31T10:37:31;15.80;99.90
22716;DHT22;11525;51.152;4.456;2022-10-31T10:40:38;16.10;99.90
22716;DHT22;11525;51.152;4.456;2022-10-31T10:46:57;16.00;99.90
22716;DHT22;11525;51.152;4.456;2022-10-31T10:59:39;16.40;99.90
22716;DHT22;11525;51.152;4.456;2022-10-31T11:02:26;16.50;99.90
22716;DHT22;11525;51.152;4.456;2022-10-31T11:05:01;16.40;99.90
22716;DHT22;11525;51.152;4.456;2022-10-31T11:07:38;16.30;99.90
22716;DHT22;11525;51.152;4.456;2022-10-31T11:10:19;16.20;99.90
22716;DHT22;11525;51.152;4.456;2022-10-31T11:23:33;16.20;99.90
22716;DHT22;11525;51.152;4.456;2022-10-31T11:26:39;16.20;99.90
22716;DHT22;11525;51.152;4.456;2022-10-31T11:32:26;16.20;99.90
22716;DHT22;11525;51.152;4.456;2022-10-31T11:35:24;16.20;99.90
22716;DHT22;11525;51.152;4.456;2022-10-31T11:38:20;16.30;99.90
22716;DHT22;11525;51.152;4.456;2022-10-31T11:41:43;16.50;99.90
22716;DHT22;11525;51.152;4.456;2022-10-31T11:47:04;16.70;99.90
22716;DHT22;11525;51.152;4.456;2022-10-31T11:50:19;16.80;99.90
22716;DHT22;11525;51.152;4.456;2022-10-31T12:09:57;17.30;99.90
22716;DHT22;11525;51.152;4.456;2022-10-31T12:32:41;18.20;99.90
22716;DHT22;11525;51.152;4.456;2022-10-31T12:58:52;17.90;99.90
22716;DHT22;11525;51.152;4.456;2022-10-31T13:01:44;18.00;99.90
22716;DHT22;11525;51.152;4.456;2022-10-31T13:04:30;18.00;99.90
22716;DHT22;11525;51.152;4.456;2022-10-31T13:07:02;18.10;99.90
22716;DHT22;11525;51.152;4.456;2022-10-31T13:10:02;18.20;99.90
22716;DHT22;11525;51.152;4.456;2022-10-31T13:12:31;18.40;99.90
22716;DHT22;11525;51.152;4.456;2022-10-31T13:15:19;18.30;99.90
22716;DHT22;11525;51.152;4.456;2022-10-31T13:17:54;18.50;99.90
22716;DHT22;11525;51.152;4.456;2022-10-31T13:20:41;18.80;99.90
22716;DHT22;11525;51.152;4.456;2022-10-31T13:23:30;18.80;99.90
22716;DHT22;11525;51.152;4.456;2022-10-31T13:25:59;19.00;99.90
22716;DHT22;11525;51.152;4.456;2022-10-31T13:28:43;18.90;99.90
22716;DHT22;11525;51.152;4.456;2022-10-31T13:31:10;18.70;99.90
22716;DHT22;11525;51.152;4.456;2022-10-31T13:33:51;18.70;99.90
22716;DHT22;11525;51.152;4.456;2022-10-31T13:36:41;18.50;99.90
22716;DHT22;11525;51.152;4.456;2022-10-31T13:39:31;18.50;99.90
22716;DHT22;11525;51.152;4.456;2022-10-31T13:42:22;18.60;99.90
22716;DHT22;11525;51.152;4.456;2022-10-31T13:44:49;18.70;99.90
22716;DHT22;11525;51.152;4.456;2022-10-31T13:47:27;18.70;99.90
22716;DHT22;11525;51.152;4.456;2022-10-31T13:50:22;18.80;99.90
22716;DHT22;11525;51.152;4.456;2022-10-31T13:52:48;18.80;99.90
22716;DHT22;11525;51.152;4.456;2022-10-31T13:55:43;18.80;99.90
22716;DHT22;11525;51.152;4.456;2022-10-31T13:59:15;18.70;99.90
22716;DHT22;11525;51.152;4.456;2022-10-31T14:01:21;18.70;99.90
22716;DHT22;11525;51.152;4.456;2022-10-31T14:10:36;18.80;99.90
22716;DHT22;11525;51.152;4.456;2022-10-31T14:13:47;18.80;99.90
22716;DHT22;11525;51.152;4.456;2022-10-31T14:16:51;18.90;99.90
22716;DHT22;11525;51.152;4.456;2022-10-31T14:19:27;18.90;99.90
22716;DHT22;11525;51.152;4.456;2022-10-31T14:22:20;18.90;99.90
22716;DHT22;11525;51.152;4.456;2022-10-31T14:27:46;19.00;99.90
22716;DHT22;11525;51.152;4.456;2022-10-31T14:30:23;19.10;99.90
22716;DHT22;11525;51.152;4.456;2022-10-31T14:33:02;19.00;99.90
22716;DHT22;11525;51.152;4.456;2022-10-31T14:45:13;18.90;99.90
22716;DHT22;11525;51.152;4.456;2022-10-31T14:47:47;18.90;99.90
22716;DHT22;11525;51.152;4.456;2022-10-31T14:50:32;18.80;99.90
22716;DHT22;11525;51.152;4.456;2022-10-31T14:53:08;18.80;99.90
22716;DHT22;11525;51.152;4.456;2022-10-31T14:55:54;18.90;99.90
22716;DHT22;11525;51.152;4.456;2022-10-31T14:58:55;18.80;99.90
22716;DHT22;11525;51.152;4.456;2022-10-31T15:01:34;18.70;99.90
22716;DHT22;11525;51.152;4.456;2022-10-31T15:04:28;18.60;99.90
22716;DHT22;11525;51.152;4.456;2022-10-31T15:07:31;18.80;99.90
22716;DHT22;11525;51.152;4.456;2022-10-31T15:13:29;18.70;99.90
22716;DHT22;11525;51.152;4.456;2022-10-31T15:16:05;18.60;99.90
22716;DHT22;11525;51.152;4.456;2022-10-31T15:21:35;18.60;99.90
22716;DHT22;11525;51.152;4.456;2022-10-31T15:24:17;18.60;99.90
22716;DHT22;11525;51.152;4.456;2022-10-31T15:26:51;18.60;99.90
22716;DHT22;11525;51.152;4.456;2022-10-31T15:29:23;18.60;99.90
22716;DHT22;11525;51.152;4.456;2022-10-31T15:42:00;18.40;99.90
22716;DHT22;11525;51.152;4.456;2022-10-31T15:54:36;18.00;99.90
22716;DHT22;11525;51.152;4.456;2022-10-31T15:57:12;18.10;99.90
22716;DHT22;11525;51.152;4.456;2022-10-31T16:00:00;18.00;99.90
22716;DHT22;11525;51.152;4.456;2022-10-31T16:06:04;17.90;99.90
22716;DHT22;11525;51.152;4.456;2022-10-31T16:11:45;17.60;99.90
22716;DHT22;11525;51.152;4.456;2022-10-31T16:14:26;17.50;99.90
22716;DHT22;11525;51.152;4.456;2022-10-31T16:17:18;17.40;99.90
22716;DHT22;11525;51.152;4.456;2022-10-31T16:20:25;17.30;99.90
22716;DHT22;11525;51.152;4.456;2022-10-31T16:23:34;17.30;99.90
22716;DHT22;11525;51.152;4.456;2022-10-31T16:26:35;17.20;99.90
22716;DHT22;11525;51.152;4.456;2022-10-31T16:35:37;17.00;99.90
22716;DHT22;11525;51.152;4.456;2022-10-31T16:38:30;17.00;99.90
22716;DHT22;11525;51.152;4.456;2022-10-31T16:44:36;16.80;99.90
22716;DHT22;11525;51.152;4.456;2022-10-31T16:50:41;16.70;99.90
22716;DHT22;11525;51.152;4.456;2022-10-31T17:00:40;16.70;99.90
22716;DHT22;11525;51.152;4.456;2022-10-31T17:06:40;16.70;99.90
22716;DHT22;11525;51.152;4.456;2022-10-31T17:09:32;16.50;99.90
22716;DHT22;11525;51.152;4.456;2022-10-31T17:35:25;16.60;99.90
22716;DHT22;11525;51.152;4.456;2022-10-31T18:02:30;16.50;99.90
22716;DHT22;11525;51.152;4.456;2022-10-31T18:05:29;16.50;99.90
22716;DHT22;11525;51.152;4.456;2022-10-31T18:08:34;16.50;99.90
22716;DHT22;11525;51.152;4.456;2022-10-31T18:11:26;16.40;99.90
22716;DHT22;11525;51.152;4.456;2022-10-31T18:14:09;16.40;99.90
22716;DHT22;11525;51.152;4.456;2022-10-31T18:19:42;16.20;99.90
22716;DHT22;11525;51.152;4.456;2022-10-31T18:22:11;16.20;99.90
22716;DHT22;11525;51.152;4.456;2022-10-31T18:24:40;16.30;99.90
22716;DHT22;11525;51.152;4.456;2022-10-31T18:27:06;16.20;99.90
22716;DHT22;11525;51.152;4.456;2022-10-31T18:29:34;16.20;99.90
22716;DHT22;11525;51.152;4.456;2022-10-31T18:32:03;16.20;99.90
22716;DHT22;11525;51.152;4.456;2022-10-31T18:34:32;16.20;99.90
22716;DHT22;11525;51.152;4.456;2022-10-31T18:36:58;16.20;99.90
22716;DHT22;11525;51.152;4.456;2022-10-31T18:39:24;16.20;99.90
22716;DHT22;11525;51.152;4.456;2022-10-31T18:41:50;16.20;99.90
22716;DHT22;11525;51.152;4.456;2022-10-31T18:44:18;16.20;99.90
22716;DHT22;11525;51.152;4.456;2022-10-31T18:46:44;16.30;99.90
22716;DHT22;11525;51.152;4.456;2022-10-31T18:49:13;16.30;99.90
22716;DHT22;11525;51.152;4.456;2022-10-31T18:51:40;16.40;99.90
22716;DHT22;11525;51.152;4.456;2022-10-31T18:54:12;16.40;99.90
22716;DHT22;11525;51.152;4.456;2022-10-31T18:56:38;16.20;99.90
22716;DHT22;11525;51.152;4.456;2022-10-31T18:59:06;16.20;99.90
22716;DHT22;11525;51.152;4.456;2022-10-31T19:01:33;16.10;99.90
22716;DHT22;11525;51.152;4.456;2022-10-31T19:04:06;16.10;99.90
22716;DHT22;11525;51.152;4.456;2022-10-31T19:06:41;16.10;99.90
22716;DHT22;11525;51.152;4.456;2022-10-31T19:09:07;16.00;99.90
22716;DHT22;11525;51.152;4.456;2022-10-31T19:11:37;15.90;99.90
22716;DHT22;11525;51.152;4.456;2022-10-31T19:14:03;15.80;99.90
22716;DHT22;11525;51.152;4.456;2022-10-31T19:16:30;15.80;99.90
22716;DHT22;11525;51.152;4.456;2022-10-31T19:18:59;15.90;99.90
22716;DHT22;11525;51.152;4.456;2022-10-31T19:21:26;16.00;99.90
22716;DHT22;11525;51.152;4.456;2022-10-31T19:23:53;16.00;99.90
22716;DHT22;11525;51.152;4.456;2022-10-31T19:26:21;16.10;99.90
22716;DHT22;11525;51.152;4.456;2022-10-31T19:28:46;16.10;99.90
22716;DHT22;11525;51.152;4.456;2022-10-31T19:31:15;16.10;99.90
22716;DHT22;11525;51.152;4.456;2022-10-31T19:33:48;16.10;99.90
22716;DHT22;11525;51.152;4.456;2022-10-31T19:36:16;16.00;99.90
22716;DHT22;11525;51.152;4.456;2022-10-31T19:38:45;16.10;99.90
22716;DHT22;11525;51.152;4.456;2022-10-31T19:41:23;16.10;99.90
22716;DHT22;11525;51.152;4.456;2022-10-31T19:43:51;16.00;99.90
22716;DHT22;11525;51.152;4.456;2022-10-31T19:46:19;16.00;99.90
22716;DHT22;11525;51.152;4.456;2022-10-31T19:48:48;16.00;99.90
22716;DHT22;11525;51.152;4.456;2022-10-31T19:51:19;16.00;99.90
22716;DHT22;11525;51.152;4.456;2022-10-31T19:53:48;16.00;99.90
22716;DHT22;11525;51.152;4.456;2022-10-31T19:56:16;16.00;99.90
22716;DHT22;11525;51.152;4.456;2022-10-31T19:58:45;16.10;99.90
22716;DHT22;11525;51.152;4.456;2022-10-31T20:01:13;16.10;99.90
22716;DHT22;11525;51.152;4.456;2022-10-31T20:03:43;16.10;99.90
22716;DHT22;11525;51.152;4.456;2022-10-31T20:06:21;16.00;99.90
22716;DHT22;11525;51.152;4.456;2022-10-31T20:08:55;15.80;99.90
22716;DHT22;11525;51.152;4.456;2022-10-31T20:11:22;15.80;99.90
22716;DHT22;11525;51.152;4.456;2022-10-31T20:13:57;15.80;99.90
22716;DHT22;11525;51.152;4.456;2022-10-31T20:16:33;15.80;99.90
22716;DHT22;11525;51.152;4.456;2022-10-31T20:19:02;15.80;99.90
22716;DHT22;11525;51.152;4.456;2022-10-31T20:21:41;15.80;99.90
22716;DHT22;11525;51.152;4.456;2022-10-31T20:24:14;15.80;99.90
22716;DHT22;11525;51.152;4.456;2022-10-31T20:26:40;15.80;99.90
22716;DHT22;11525;51.152;4.456;2022-10-31T20:29:06;15.90;99.90
22716;DHT22;11525;51.152;4.456;2022-10-31T20:31:37;16.00;99.90
22716;DHT22;11525;51.152;4.456;2022-10-31T20:34:07;16.10;99.90
22716;DHT22;11525;51.152;4.456;2022-10-31T20:36:41;16.10;99.90
22716;DHT22;11525;51.152;4.456;2022-10-31T20:39:17;16.30;99.90
22716;DHT22;11525;51.152;4.456;2022-10-31T20:41:48;16.40;99.90
22716;DHT22;11525;51.152;4.456;2022-10-31T20:44:29;16.50;99.90
22716;DHT22;11525;51.152;4.456;2022-10-31T20:47:04;16.40;99.90
22716;DHT22;11525;51.152;4.456;2022-10-31T20:49:40;16.50;99.90
22716;DHT22;11525;51.152;4.456;2022-10-31T20:52:09;16.50;99.90
22716;DHT22;11525;51.152;4.456;2022-10-31T20:54:58;16.50;99.90
22716;DHT22;11525;51.152;4.456;2022-10-31T20:57:50;16.50;99.90
22716;DHT22;11525;51.152;4.456;2022-10-31T21:00:27;16.70;99.90
22716;DHT22;11525;51.152;4.456;2022-10-31T21:03:11;16.80;99.90
22716;DHT22;11525;51.152;4.456;2022-10-31T21:05:55;16.80;99.90
22716;DHT22;11525;51.152;4.456;2022-10-31T21:08:27;16.90;99.90
22716;DHT22;11525;51.152;4.456;2022-10-31T21:10:59;16.90;99.90
22716;DHT22;11525;51.152;4.456;2022-10-31T21:13:52;16.70;99.90
22716;DHT22;11525;51.152;4.456;2022-10-31T21:16:23;16.50;99.90
22716;DHT22;11525;51.152;4.456;2022-10-31T21:18:52;16.50;99.90
22716;DHT22;11525;51.152;4.456;2022-10-31T21:21:42;16.50;99.90
22716;DHT22;11525;51.152;4.456;2022-10-31T21:24:18;16.50;99.90
22716;DHT22;11525;51.152;4.456;2022-10-31T21:26:50;16.50;99.90
22716;DHT22;11525;51.152;4.456;2022-10-31T21:29:27;16.50;99.90
22716;DHT22;11525;51.152;4.456;2022-10-31T21:31:56;16.50;99.90
22716;DHT22;11525;51.152;4.456;2022-10-31T21:34:24;16.30;99.90
22716;DHT22;11525;51.152;4.456;2022-10-31T21:36:50;16.30;99.90
22716;DHT22;11525;51.152;4.456;2022-10-31T21:39:16;16.20;99.90
22716;DHT22;11525;51.152;4.456;2022-10-31T21:41:42;16.30;99.90
22716;DHT22;11525;51.152;4.456;2022-10-31T21:44:09;16.20;99.90
22716;DHT22;11525;51.152;4.456;2022-10-31T21:46:35;16.20;99.90
22716;DHT22;11525;51.152;4.456;2022-10-31T21:49:05;16.20;99.90
22716;DHT22;11525;51.152;4.456;2022-10-31T21:51:35;16.20;99.90
22716;DHT22;11525;51.152;4.456;2022-10-31T21:54:04;16.40;99.90
22716;DHT22;11525;51.152;4.456;2022-10-31T21:56:49;16.40;99.90
22716;DHT22;11525;51.152;4.456;2022-10-31T21:59:24;16.50;99.90
22716;DHT22;11525;51.152;4.456;2022-10-31T22:01:51;16.50;99.90
22716;DHT22;11525;51.152;4.456;2022-10-31T22:04:17;16.40;99.90
22716;DHT22;11525;51.152;4.456;2022-10-31T22:06:49;16.40;99.90
22716;DHT22;11525;51.152;4.456;2022-10-31T22:09:18;16.50;99.90
22716;DHT22;11525;51.152;4.456;2022-10-31T22:11:48;16.50;99.90
22716;DHT22;11525;51.152;4.456;2022-10-31T22:14:17;16.60;99.90
22716;DHT22;11525;51.152;4.456;2022-10-31T22:16:49;16.70;99.90
22716;DHT22;11525;51.152;4.456;2022-10-31T22:19:17;16.80;99.90
22716;DHT22;11525;51.152;4.456;2022-10-31T22:21:52;16.90;99.90
22716;DHT22;11525;51.152;4.456;2022-10-31T22:24:18;17.00;99.90
22716;DHT22;11525;51.152;4.456;2022-10-31T22:26:49;17.10;99.90
22716;DHT22;11525;51.152;4.456;2022-10-31T22:29:19;17.10;99.90
22716;DHT22;11525;51.152;4.456;2022-10-31T22:31:48;17.10;99.90
22716;DHT22;11525;51.152;4.456;2022-10-31T22:34:15;17.20;99.90
22716;DHT22;11525;51.152;4.456;2022-10-31T22:36:42;17.30;99.90
22716;DHT22;11525;51.152;4.456;2022-10-31T22:39:10;17.50;99.90
22716;DHT22;11525;51.152;4.456;2022-10-31T22:41:38;17.50;99.90
22716;DHT22;11525;51.152;4.456;2022-10-31T22:44:10;17.50;99.90
22716;DHT22;11525;51.152;4.456;2022-10-31T22:46:37;17.40;99.90
22716;DHT22;11525;51.152;4.456;2022-10-31T22:49:13;17.50;99.90
22716;DHT22;11525;51.152;4.456;2022-10-31T22:51:40;17.60;99.90
22716;DHT22;11525;51.152;4.456;2022-10-31T22:54:12;17.60;99.90
22716;DHT22;11525;51.152;4.456;2022-10-31T22:56:41;17.60;99.90
22716;DHT22;11525;51.152;4.456;2022-10-31T22:59:17;17.60;99.90
22716;DHT22;11525;51.152;4.456;2022-10-31T23:01:46;17.60;99.90
22716;DHT22;11525;51.152;4.456;2022-10-31T23:04:21;17.60;99.90
22716;DHT22;11525;51.152;4.456;2022-10-31T23:06:55;17.60;99.90
22716;DHT22;11525;51.152;4.456;2022-10-31T23:09:24;17.70;99.90
22716;DHT22;11525;51.152;4.456;2022-10-31T23:11:50;18.00;99.90
22716;DHT22;11525;51.152;4.456;2022-10-31T23:14:25;18.00;99.90
22716;DHT22;11525;51.152;4.456;2022-10-31T23:17:01;17.80;99.90
22716;DHT22;11525;51.152;4.456;2022-10-31T23:19:29;17.80;99.90
22716;DHT22;11525;51.152;4.456;2022-10-31T23:21:57;18.00;99.90
22716;DHT22;11525;51.152;4.456;2022-10-31T23:24:41;18.10;99.90
22716;DHT22;11525;51.152;4.456;2022-10-31T23:27:17;18.20;99.90
22716;DHT22;11525;51.152;4.456;2022-10-31T23:34:39;18.00;99.90
22716;DHT22;11525;51.152;4.456;2022-10-31T23:37:05;18.10;99.90
22716;DHT22;11525;51.152;4.456;2022-10-31T23:39:31;18.00;99.90
22716;DHT22;11525;51.152;4.456;2022-10-31T23:42:15;18.00;99.90
22716;DHT22;11525;51.152;4.456;2022-10-31T23:44:47;17.90;99.90
22716;DHT22;11525;51.152;4.456;2022-10-31T23:47:16;18.00;99.90
22716;DHT22;11525;51.152;4.456;2022-10-31T23:49:45;18.00;99.90
22716;DHT22;11525;51.152;4.456;2022-10-31T23:52:15;18.00;99.90
22716;DHT22;11525;51.152;4.456;2022-10-31T23:54:59;18.00;99.90
22716;DHT22;11525;51.152;4.456;2022-10-31T23:57:25;18.00;99.90
22716;DHT22;11525;51.152;4.456;2022-10-31T23:59:56;17.90;99.90
